sensor_id;sensor_type;location;lat;lon;timestamp;temperature;humidity
28761;DHT22;15917;50.014;8.352;2023-08-31T00:01:39;15.20;99.90
28761;DHT22;15917;50.014;8.352;2023-08-31T00:04:05;15.10;99.90
28761;DHT22;15917;50.014;8.352;2023-08-31T00:06:33;15.20;99.90
28761;DHT22;15917;50.014;8.352;2023-08-31T00:08:59;15.10;99.90
28761;DHT22;15917;50.014;8.352;2023-08-31T00:11:24;15.10;99.90
28761;DHT22;15917;50.014;8.352;2023-08-31T00:13:51;15.10;99.90
28761;DHT22;15917;50.014;8.352;2023-08-31T00:16:19;15.10;99.90
28761;DHT22;15917;50.014;8.352;2023-08-31T00:18:49;15.00;99.90
28761;DHT22;15917;50.014;8.352;2023-08-31T00:21:14;15.00;99.90
28761;DHT22;15917;50.014;8.352;2023-08-31T00:23:40;15.00;99.90
28761;DHT22;15917;50.014;8.352;2023-08-31T00:26:05;14.90;99.90
28761;DHT22;15917;50.014;8.352;2023-08-31T00:28:32;14.90;99.90
28761;DHT22;15917;50.014;8.352;2023-08-31T00:31:00;14.90;99.90
28761;DHT22;15917;50.014;8.352;2023-08-31T00:33:30;14.80;99.90
28761;DHT22;15917;50.014;8.352;2023-08-31T00:35:59;14.80;99.90
28761;DHT22;15917;50.014;8.352;2023-08-31T00:38:27;14.80;99.90
28761;DHT22;15917;50.014;8.352;2023-08-31T00:40:53;14.80;99.90
28761;DHT22;15917;50.014;8.352;2023-08-31T00:43:19;14.70;99.90
28761;DHT22;15917;50.014;8.352;2023-08-31T00:45:48;14.70;99.90
28761;DHT22;15917;50.014;8.352;2023-08-31T00:48:15;14.70;99.90
28761;DHT22;15917;50.014;8.352;2023-08-31T00:50:43;14.70;99.90
28761;DHT22;15917;50.014;8.352;2023-08-31T00:53:09;14.70;99.90
28761;DHT22;15917;50.014;8.352;2023-08-31T00:55:34;14.70;99.90
28761;DHT22;15917;50.014;8.352;2023-08-31T00:58:00;14.70;99.90
28761;DHT22;15917;50.014;8.352;2023-08-31T01:00:39;14.60;99.90
28761;DHT22;15917;50.014;8.352;2023-08-31T01:03:12;14.60;99.90
28761;DHT22;15917;50.014;8.352;2023-08-31T01:05:46;14.50;99.90
28761;DHT22;15917;50.014;8.352;2023-08-31T01:08:36;14.50;99.90
28761;DHT22;15917;50.014;8.352;2023-08-31T01:13:41;14.40;99.90
28761;DHT22;15917;50.014;8.352;2023-08-31T01:16:10;14.50;99.90
28761;DHT22;15917;50.014;8.352;2023-08-31T01:18:39;14.40;99.90
28761;DHT22;15917;50.014;8.352;2023-08-31T01:21:20;14.40;99.90
28761;DHT22;15917;50.014;8.352;2023-08-31T01:23:54;14.40;99.90
28761;DHT22;15917;50.014;8.352;2023-08-31T01:26:21;14.40;99.90
28761;DHT22;15917;50.014;8.352;2023-08-31T01:28:50;14.30;99.90
28761;DHT22;15917;50.014;8.352;2023-08-31T01:31:16;14.40;99.90
28761;DHT22;15917;50.014;8.352;2023-08-31T01:33:42;14.40;99.90
28761;DHT22;15917;50.014;8.352;2023-08-31T01:36:22;14.40;99.90
28761;DHT22;15917;50.014;8.352;2023-08-31T01:38:56;14.30;99.90
28761;DHT22;15917;50.014;8.352;2023-08-31T01:41:24;14.30;99.90
28761;DHT22;15917;50.014;8.352;2023-08-31T01:43:51;14.30;99.90
28761;DHT22;15917;50.014;8.352;2023-08-31T01:46:18;14.20;99.90
28761;DHT22;15917;50.014;8.352;2023-08-31T01:48:44;14.20;99.90
28761;DHT22;15917;50.014;8.352;2023-08-31T01:51:10;14.20;99.90
28761;DHT22;15917;50.014;8.352;2023-08-31T01:53:36;14.20;99.90
28761;DHT22;15917;50.014;8.352;2023-08-31T01:56:02;14.20;99.90
28761;DHT22;15917;50.014;8.352;2023-08-31T01:58:28;14.10;99.90
28761;DHT22;15917;50.014;8.352;2023-08-31T02:00:53;14.20;99.90
28761;DHT22;15917;50.014;8.352;2023-08-31T02:03:19;14.20;99.90
28761;DHT22;15917;50.014;8.352;2023-08-31T02:05:45;14.20;99.90
28761;DHT22;15917;50.014;8.352;2023-08-31T02:08:10;14.20;99.90
28761;DHT22;15917;50.014;8.352;2023-08-31T02:10:36;14.20;99.90
28761;DHT22;15917;50.014;8.352;2023-08-31T02:13:01;14.30;99.90
28761;DHT22;15917;50.014;8.352;2023-08-31T02:15:27;14.30;99.90
28761;DHT22;15917;50.014;8.352;2023-08-31T02:17:53;14.40;99.90
28761;DHT22;15917;50.014;8.352;2023-08-31T02:20:19;14.40;99.90
28761;DHT22;15917;50.014;8.352;2023-08-31T02:22:46;14.30;99.90
28761;DHT22;15917;50.014;8.352;2023-08-31T02:25:11;14.30;99.90
28761;DHT22;15917;50.014;8.352;2023-08-31T02:27:39;14.30;99.90
28761;DHT22;15917;50.014;8.352;2023-08-31T02:30:05;14.30;99.90
28761;DHT22;15917;50.014;8.352;2023-08-31T02:32:32;14.30;99.90
28761;DHT22;15917;50.014;8.352;2023-08-31T02:34:58;14.30;99.90
28761;DHT22;15917;50.014;8.352;2023-08-31T02:37:24;14.30;99.90
28761;DHT22;15917;50.014;8.352;2023-08-31T02:39:49;14.30;99.90
28761;DHT22;15917;50.014;8.352;2023-08-31T02:42:15;14.30;99.90
28761;DHT22;15917;50.014;8.352;2023-08-31T02:44:41;14.30;99.90
28761;DHT22;15917;50.014;8.352;2023-08-31T02:47:06;14.20;99.90
28761;DHT22;15917;50.014;8.352;2023-08-31T02:49:32;14.20;99.90
28761;DHT22;15917;50.014;8.352;2023-08-31T02:51:57;14.20;99.90
28761;DHT22;15917;50.014;8.352;2023-08-31T02:54:23;14.20;99.90
28761;DHT22;15917;50.014;8.352;2023-08-31T02:56:48;14.20;99.90
28761;DHT22;15917;50.014;8.352;2023-08-31T02:59:14;14.20;99.90
28761;DHT22;15917;50.014;8.352;2023-08-31T03:01:40;14.10;99.90
28761;DHT22;15917;50.014;8.352;2023-08-31T03:04:06;14.10;99.90
28761;DHT22;15917;50.014;8.352;2023-08-31T03:06:32;14.10;99.90
28761;DHT22;15917;50.014;8.352;2023-08-31T03:08:58;14.10;99.90
28761;DHT22;15917;50.014;8.352;2023-08-31T03:11:24;14.10;99.90
28761;DHT22;15917;50.014;8.352;2023-08-31T03:13:49;14.00;99.90
28761;DHT22;15917;50.014;8.352;2023-08-31T03:16:15;14.00;99.90
28761;DHT22;15917;50.014;8.352;2023-08-31T03:18:41;14.00;99.90
28761;DHT22;15917;50.014;8.352;2023-08-31T03:21:06;13.90;99.90
28761;DHT22;15917;50.014;8.352;2023-08-31T03:23:33;13.90;99.90
28761;DHT22;15917;50.014;8.352;2023-08-31T03:25:58;13.90;99.90
28761;DHT22;15917;50.014;8.352;2023-08-31T03:28:25;13.90;99.90
28761;DHT22;15917;50.014;8.352;2023-08-31T03:30:56;13.90;99.90
28761;DHT22;15917;50.014;8.352;2023-08-31T03:33:21;13.90;99.90
28761;DHT22;15917;50.014;8.352;2023-08-31T03:35:47;13.90;99.90
28761;DHT22;15917;50.014;8.352;2023-08-31T03:38:13;13.90;99.90
28761;DHT22;15917;50.014;8.352;2023-08-31T03:40:39;13.90;99.90
28761;DHT22;15917;50.014;8.352;2023-08-31T03:43:05;13.80;99.90
28761;DHT22;15917;50.014;8.352;2023-08-31T03:45:31;13.80;99.90
28761;DHT22;15917;50.014;8.352;2023-08-31T03:47:56;13.80;99.90
28761;DHT22;15917;50.014;8.352;2023-08-31T03:50:23;13.80;99.90
28761;DHT22;15917;50.014;8.352;2023-08-31T03:52:48;13.70;99.90
28761;DHT22;15917;50.014;8.352;2023-08-31T03:55:14;13.70;99.90
28761;DHT22;15917;50.014;8.352;2023-08-31T03:57:40;13.70;99.90
28761;DHT22;15917;50.014;8.352;2023-08-31T04:00:19;13.70;99.90
28761;DHT22;15917;50.014;8.352;2023-08-31T04:02:44;13.70;99.90
28761;DHT22;15917;50.014;8.352;2023-08-31T04:05:12;13.60;99.90
28761;DHT22;15917;50.014;8.352;2023-08-31T04:07:42;13.70;99.90
28761;DHT22;15917;50.014;8.352;2023-08-31T04:10:08;13.70;99.90
28761;DHT22;15917;50.014;8.352;2023-08-31T04:12:34;14.00;99.90
28761;DHT22;15917;50.014;8.352;2023-08-31T04:15:00;14.40;99.90
28761;DHT22;15917;50.014;8.352;2023-08-31T04:17:25;14.60;99.90
28761;DHT22;15917;50.014;8.352;2023-08-31T04:19:51;14.70;99.90
28761;DHT22;15917;50.014;8.352;2023-08-31T04:22:17;14.60;99.90
28761;DHT22;15917;50.014;8.352;2023-08-31T04:24:43;14.90;99.90
28761;DHT22;15917;50.014;8.352;2023-08-31T04:27:08;15.00;99.90
28761;DHT22;15917;50.014;8.352;2023-08-31T04:29:34;15.30;99.90
28761;DHT22;15917;50.014;8.352;2023-08-31T04:31:59;15.40;99.90
28761;DHT22;15917;50.014;8.352;2023-08-31T04:34:25;15.50;99.90
28761;DHT22;15917;50.014;8.352;2023-08-31T04:36:51;15.30;99.90
28761;DHT22;15917;50.014;8.352;2023-08-31T04:39:17;15.20;99.90
28761;DHT22;15917;50.014;8.352;2023-08-31T04:41:43;15.10;99.90
28761;DHT22;15917;50.014;8.352;2023-08-31T04:44:09;14.90;99.90
28761;DHT22;15917;50.014;8.352;2023-08-31T04:46:34;14.60;99.90
28761;DHT22;15917;50.014;8.352;2023-08-31T04:49:00;14.30;99.90
28761;DHT22;15917;50.014;8.352;2023-08-31T04:51:34;14.10;99.90
28761;DHT22;15917;50.014;8.352;2023-08-31T04:54:00;13.90;99.90
28761;DHT22;15917;50.014;8.352;2023-08-31T04:56:31;13.90;99.90
28761;DHT22;15917;50.014;8.352;2023-08-31T04:58:58;13.80;99.90
28761;DHT22;15917;50.014;8.352;2023-08-31T05:01:23;13.70;99.90
28761;DHT22;15917;50.014;8.352;2023-08-31T05:03:49;13.70;99.90
28761;DHT22;15917;50.014;8.352;2023-08-31T05:06:14;13.70;99.90
28761;DHT22;15917;50.014;8.352;2023-08-31T05:08:40;13.70;99.90
28761;DHT22;15917;50.014;8.352;2023-08-31T05:11:06;13.70;99.90
28761;DHT22;15917;50.014;8.352;2023-08-31T05:13:31;13.70;99.90
28761;DHT22;15917;50.014;8.352;2023-08-31T05:15:57;13.70;99.90
28761;DHT22;15917;50.014;8.352;2023-08-31T05:18:23;13.70;99.90
28761;DHT22;15917;50.014;8.352;2023-08-31T05:20:48;13.70;99.90
28761;DHT22;15917;50.014;8.352;2023-08-31T05:23:14;13.70;99.90
28761;DHT22;15917;50.014;8.352;2023-08-31T05:25:46;13.70;99.90
28761;DHT22;15917;50.014;8.352;2023-08-31T05:28:12;13.70;99.90
28761;DHT22;15917;50.014;8.352;2023-08-31T05:30:53;13.70;99.90
28761;DHT22;15917;50.014;8.352;2023-08-31T05:33:19;13.70;99.90
28761;DHT22;15917;50.014;8.352;2023-08-31T05:35:45;13.70;99.90
28761;DHT22;15917;50.014;8.352;2023-08-31T05:38:11;13.80;99.90
28761;DHT22;15917;50.014;8.352;2023-08-31T05:40:37;13.90;99.90
28761;DHT22;15917;50.014;8.352;2023-08-31T05:43:03;13.90;99.90
28761;DHT22;15917;50.014;8.352;2023-08-31T05:45:32;13.90;99.90
28761;DHT22;15917;50.014;8.352;2023-08-31T05:47:58;13.90;99.90
28761;DHT22;15917;50.014;8.352;2023-08-31T05:50:23;13.90;99.90
28761;DHT22;15917;50.014;8.352;2023-08-31T05:52:49;13.90;99.90
28761;DHT22;15917;50.014;8.352;2023-08-31T05:55:15;13.90;99.90
28761;DHT22;15917;50.014;8.352;2023-08-31T05:57:40;14.00;99.90
28761;DHT22;15917;50.014;8.352;2023-08-31T06:00:06;14.10;99.90
28761;DHT22;15917;50.014;8.352;2023-08-31T06:02:38;14.20;99.90
28761;DHT22;15917;50.014;8.352;2023-08-31T06:05:05;14.20;99.90
28761;DHT22;15917;50.014;8.352;2023-08-31T06:07:31;14.20;99.90
28761;DHT22;15917;50.014;8.352;2023-08-31T06:09:57;14.10;99.90
28761;DHT22;15917;50.014;8.352;2023-08-31T06:12:23;14.20;99.90
28761;DHT22;15917;50.014;8.352;2023-08-31T06:14:48;14.20;99.90
28761;DHT22;15917;50.014;8.352;2023-08-31T06:17:14;14.20;99.90
28761;DHT22;15917;50.014;8.352;2023-08-31T06:19:40;14.20;99.90
28761;DHT22;15917;50.014;8.352;2023-08-31T06:22:06;14.30;99.90
28761;DHT22;15917;50.014;8.352;2023-08-31T06:24:32;14.30;99.90
28761;DHT22;15917;50.014;8.352;2023-08-31T06:26:59;14.30;99.90
28761;DHT22;15917;50.014;8.352;2023-08-31T06:29:25;14.40;99.90
28761;DHT22;15917;50.014;8.352;2023-08-31T06:31:50;14.50;99.90
28761;DHT22;15917;50.014;8.352;2023-08-31T06:34:16;14.50;99.90
28761;DHT22;15917;50.014;8.352;2023-08-31T06:36:42;14.50;99.90
28761;DHT22;15917;50.014;8.352;2023-08-31T06:39:07;14.60;99.90
28761;DHT22;15917;50.014;8.352;2023-08-31T06:41:33;14.60;99.90
28761;DHT22;15917;50.014;8.352;2023-08-31T06:43:59;14.70;99.90
28761;DHT22;15917;50.014;8.352;2023-08-31T06:46:25;14.70;99.90
28761;DHT22;15917;50.014;8.352;2023-08-31T06:48:50;14.80;99.90
28761;DHT22;15917;50.014;8.352;2023-08-31T06:51:16;14.90;99.90
28761;DHT22;15917;50.014;8.352;2023-08-31T06:53:43;14.90;99.90
28761;DHT22;15917;50.014;8.352;2023-08-31T06:56:09;15.00;99.90
28761;DHT22;15917;50.014;8.352;2023-08-31T06:58:34;15.10;99.90
28761;DHT22;15917;50.014;8.352;2023-08-31T07:01:00;15.20;99.90
28761;DHT22;15917;50.014;8.352;2023-08-31T07:03:26;15.20;99.90
28761;DHT22;15917;50.014;8.352;2023-08-31T07:05:52;15.20;99.90
28761;DHT22;15917;50.014;8.352;2023-08-31T07:08:17;15.20;99.90
28761;DHT22;15917;50.014;8.352;2023-08-31T07:10:43;15.20;99.90
28761;DHT22;15917;50.014;8.352;2023-08-31T07:13:09;15.20;99.90
28761;DHT22;15917;50.014;8.352;2023-08-31T07:15:34;15.40;99.90
28761;DHT22;15917;50.014;8.352;2023-08-31T07:18:00;15.40;99.90
28761;DHT22;15917;50.014;8.352;2023-08-31T07:20:25;15.50;99.90
28761;DHT22;15917;50.014;8.352;2023-08-31T07:22:51;15.60;99.90
28761;DHT22;15917;50.014;8.352;2023-08-31T07:25:17;15.70;99.90
28761;DHT22;15917;50.014;8.352;2023-08-31T07:27:42;15.70;99.90
28761;DHT22;15917;50.014;8.352;2023-08-31T07:30:08;15.70;99.90
28761;DHT22;15917;50.014;8.352;2023-08-31T07:32:35;15.60;99.90
28761;DHT22;15917;50.014;8.352;2023-08-31T07:35:01;15.60;99.90
28761;DHT22;15917;50.014;8.352;2023-08-31T07:37:28;15.50;99.90
28761;DHT22;15917;50.014;8.352;2023-08-31T07:39:54;15.50;99.90
28761;DHT22;15917;50.014;8.352;2023-08-31T07:42:20;15.40;99.90
28761;DHT22;15917;50.014;8.352;2023-08-31T07:44:45;15.50;99.90
28761;DHT22;15917;50.014;8.352;2023-08-31T07:47:11;15.60;99.90
28761;DHT22;15917;50.014;8.352;2023-08-31T07:49:37;15.80;99.90
28761;DHT22;15917;50.014;8.352;2023-08-31T07:52:02;15.90;99.90
28761;DHT22;15917;50.014;8.352;2023-08-31T07:54:28;16.10;99.90
28761;DHT22;15917;50.014;8.352;2023-08-31T07:56:54;16.20;99.90
28761;DHT22;15917;50.014;8.352;2023-08-31T07:59:20;16.50;99.90
28761;DHT22;15917;50.014;8.352;2023-08-31T08:01:46;16.60;99.90
28761;DHT22;15917;50.014;8.352;2023-08-31T08:04:12;16.60;99.90
28761;DHT22;15917;50.014;8.352;2023-08-31T08:06:37;16.60;99.90
28761;DHT22;15917;50.014;8.352;2023-08-31T08:09:03;16.50;99.90
28761;DHT22;15917;50.014;8.352;2023-08-31T08:11:30;16.50;99.90
28761;DHT22;15917;50.014;8.352;2023-08-31T08:13:56;16.50;99.90
28761;DHT22;15917;50.014;8.352;2023-08-31T08:16:22;16.50;99.90
28761;DHT22;15917;50.014;8.352;2023-08-31T08:18:49;16.60;99.90
28761;DHT22;15917;50.014;8.352;2023-08-31T08:21:15;16.80;99.90
28761;DHT22;15917;50.014;8.352;2023-08-31T08:23:40;17.00;99.90
28761;DHT22;15917;50.014;8.352;2023-08-31T08:26:06;17.10;99.90
28761;DHT22;15917;50.014;8.352;2023-08-31T08:28:33;17.20;99.90
28761;DHT22;15917;50.014;8.352;2023-08-31T08:31:01;17.40;99.90
28761;DHT22;15917;50.014;8.352;2023-08-31T08:33:32;17.20;99.90
28761;DHT22;15917;50.014;8.352;2023-08-31T08:35:58;17.20;99.90
28761;DHT22;15917;50.014;8.352;2023-08-31T08:38:24;17.10;99.90
28761;DHT22;15917;50.014;8.352;2023-08-31T08:40:50;17.00;99.90
28761;DHT22;15917;50.014;8.352;2023-08-31T08:43:20;17.00;99.90
28761;DHT22;15917;50.014;8.352;2023-08-31T08:45:51;17.00;99.90
28761;DHT22;15917;50.014;8.352;2023-08-31T08:48:17;17.00;99.90
28761;DHT22;15917;50.014;8.352;2023-08-31T08:50:45;17.00;99.90
28761;DHT22;15917;50.014;8.352;2023-08-31T08:53:10;17.10;99.90
28761;DHT22;15917;50.014;8.352;2023-08-31T08:55:36;17.20;99.90
28761;DHT22;15917;50.014;8.352;2023-08-31T08:58:03;17.10;99.90
28761;DHT22;15917;50.014;8.352;2023-08-31T09:00:30;17.10;99.90
28761;DHT22;15917;50.014;8.352;2023-08-31T09:02:56;17.10;99.90
28761;DHT22;15917;50.014;8.352;2023-08-31T09:05:22;17.20;99.90
28761;DHT22;15917;50.014;8.352;2023-08-31T09:08:05;17.20;99.90
28761;DHT22;15917;50.014;8.352;2023-08-31T09:10:45;17.20;99.90
28761;DHT22;15917;50.014;8.352;2023-08-31T09:13:12;17.20;99.90
28761;DHT22;15917;50.014;8.352;2023-08-31T09:15:42;17.40;99.90
28761;DHT22;15917;50.014;8.352;2023-08-31T09:18:17;17.70;99.90
28761;DHT22;15917;50.014;8.352;2023-08-31T09:20:48;18.10;99.90
28761;DHT22;15917;50.014;8.352;2023-08-31T09:23:14;18.50;99.90
28761;DHT22;15917;50.014;8.352;2023-08-31T09:25:44;18.70;99.90
28761;DHT22;15917;50.014;8.352;2023-08-31T09:28:12;18.90;99.90
28761;DHT22;15917;50.014;8.352;2023-08-31T09:30:38;18.80;99.90
28761;DHT22;15917;50.014;8.352;2023-08-31T09:33:07;18.50;99.90
28761;DHT22;15917;50.014;8.352;2023-08-31T09:35:34;18.30;99.90
28761;DHT22;15917;50.014;8.352;2023-08-31T09:38:03;18.10;99.90
28761;DHT22;15917;50.014;8.352;2023-08-31T09:40:32;18.20;99.90
28761;DHT22;15917;50.014;8.352;2023-08-31T09:42:57;18.40;99.90
28761;DHT22;15917;50.014;8.352;2023-08-31T09:45:30;18.60;99.90
28761;DHT22;15917;50.014;8.352;2023-08-31T09:48:03;18.70;99.90
28761;DHT22;15917;50.014;8.352;2023-08-31T09:50:31;18.60;99.90
28761;DHT22;15917;50.014;8.352;2023-08-31T09:53:04;18.50;99.90
28761;DHT22;15917;50.014;8.352;2023-08-31T09:55:35;18.30;99.90
28761;DHT22;15917;50.014;8.352;2023-08-31T09:58:02;18.10;99.90
28761;DHT22;15917;50.014;8.352;2023-08-31T10:00:29;18.20;99.90
28761;DHT22;15917;50.014;8.352;2023-08-31T10:02:57;18.40;99.90
28761;DHT22;15917;50.014;8.352;2023-08-31T10:05:24;18.60;99.90
28761;DHT22;15917;50.014;8.352;2023-08-31T10:07:50;18.80;99.90
28761;DHT22;15917;50.014;8.352;2023-08-31T10:10:16;19.10;99.90
28761;DHT22;15917;50.014;8.352;2023-08-31T10:12:44;19.20;99.90
28761;DHT22;15917;50.014;8.352;2023-08-31T10:15:11;19.20;99.90
28761;DHT22;15917;50.014;8.352;2023-08-31T10:17:39;19.20;99.90
28761;DHT22;15917;50.014;8.352;2023-08-31T10:20:08;19.20;99.90
28761;DHT22;15917;50.014;8.352;2023-08-31T10:22:35;19.10;99.90
28761;DHT22;15917;50.014;8.352;2023-08-31T10:25:05;19.00;99.90
28761;DHT22;15917;50.014;8.352;2023-08-31T10:27:44;19.00;99.90
28761;DHT22;15917;50.014;8.352;2023-08-31T10:35:48;19.10;99.90
28761;DHT22;15917;50.014;8.352;2023-08-31T10:38:30;19.30;99.90
28761;DHT22;15917;50.014;8.352;2023-08-31T10:43:54;20.00;99.90
28761;DHT22;15917;50.014;8.352;2023-08-31T10:46:34;20.60;99.90
28761;DHT22;15917;50.014;8.352;2023-08-31T10:51:35;21.10;99.90
28761;DHT22;15917;50.014;8.352;2023-08-31T10:54:09;21.00;99.90
28761;DHT22;15917;50.014;8.352;2023-08-31T10:59:24;21.10;99.90
28761;DHT22;15917;50.014;8.352;2023-08-31T11:04:29;21.40;99.90
28761;DHT22;15917;50.014;8.352;2023-08-31T11:07:31;21.50;99.90
28761;DHT22;15917;50.014;8.352;2023-08-31T11:10:18;21.10;99.90
28761;DHT22;15917;50.014;8.352;2023-08-31T11:12:52;20.70;99.90
28761;DHT22;15917;50.014;8.352;2023-08-31T11:15:19;20.30;99.90
28761;DHT22;15917;50.014;8.352;2023-08-31T11:17:46;20.10;99.90
28761;DHT22;15917;50.014;8.352;2023-08-31T11:20:16;19.80;99.90
28761;DHT22;15917;50.014;8.352;2023-08-31T11:22:43;19.70;99.90
28761;DHT22;15917;50.014;8.352;2023-08-31T11:25:12;19.70;99.90
28761;DHT22;15917;50.014;8.352;2023-08-31T11:27:38;19.60;99.90
28761;DHT22;15917;50.014;8.352;2023-08-31T11:30:25;19.50;99.90
28761;DHT22;15917;50.014;8.352;2023-08-31T11:32:52;19.50;99.90
28761;DHT22;15917;50.014;8.352;2023-08-31T11:35:19;19.50;99.90
28761;DHT22;15917;50.014;8.352;2023-08-31T11:37:48;19.50;99.90
28761;DHT22;15917;50.014;8.352;2023-08-31T11:40:14;19.70;99.90
28761;DHT22;15917;50.014;8.352;2023-08-31T11:42:40;19.60;99.90
28761;DHT22;15917;50.014;8.352;2023-08-31T11:45:07;19.70;99.90
28761;DHT22;15917;50.014;8.352;2023-08-31T11:47:33;19.80;99.90
28761;DHT22;15917;50.014;8.352;2023-08-31T11:50:00;19.90;99.90
28761;DHT22;15917;50.014;8.352;2023-08-31T11:52:30;19.90;99.90
28761;DHT22;15917;50.014;8.352;2023-08-31T11:54:56;20.00;99.90
28761;DHT22;15917;50.014;8.352;2023-08-31T11:57:26;20.10;99.90
28761;DHT22;15917;50.014;8.352;2023-08-31T11:59:52;20.10;99.90
28761;DHT22;15917;50.014;8.352;2023-08-31T12:02:20;20.20;99.90
28761;DHT22;15917;50.014;8.352;2023-08-31T12:04:46;20.40;99.90
28761;DHT22;15917;50.014;8.352;2023-08-31T12:07:17;20.70;99.90
28761;DHT22;15917;50.014;8.352;2023-08-31T12:09:43;21.00;99.90
28761;DHT22;15917;50.014;8.352;2023-08-31T12:12:10;21.30;99.90
28761;DHT22;15917;50.014;8.352;2023-08-31T12:14:39;21.60;99.90
28761;DHT22;15917;50.014;8.352;2023-08-31T12:17:07;21.90;99.90
28761;DHT22;15917;50.014;8.352;2023-08-31T12:19:33;22.20;99.90
28761;DHT22;15917;50.014;8.352;2023-08-31T12:22:01;22.30;99.90
28761;DHT22;15917;50.014;8.352;2023-08-31T12:24:27;22.40;99.90
28761;DHT22;15917;50.014;8.352;2023-08-31T12:26:53;22.60;99.90
28761;DHT22;15917;50.014;8.352;2023-08-31T12:29:19;22.40;99.90
28761;DHT22;15917;50.014;8.352;2023-08-31T12:31:45;22.30;99.90
28761;DHT22;15917;50.014;8.352;2023-08-31T12:34:11;22.40;99.90
28761;DHT22;15917;50.014;8.352;2023-08-31T12:36:36;22.60;99.90
28761;DHT22;15917;50.014;8.352;2023-08-31T12:39:04;22.60;99.90
28761;DHT22;15917;50.014;8.352;2023-08-31T12:41:32;22.70;99.90
28761;DHT22;15917;50.014;8.352;2023-08-31T12:43:58;22.70;99.90
28761;DHT22;15917;50.014;8.352;2023-08-31T12:46:24;22.80;99.90
28761;DHT22;15917;50.014;8.352;2023-08-31T12:48:50;22.90;99.90
28761;DHT22;15917;50.014;8.352;2023-08-31T12:51:18;23.00;99.90
28761;DHT22;15917;50.014;8.352;2023-08-31T12:53:43;23.10;99.90
28761;DHT22;15917;50.014;8.352;2023-08-31T12:56:09;23.30;99.90
28761;DHT22;15917;50.014;8.352;2023-08-31T12:58:35;23.20;99.90
28761;DHT22;15917;50.014;8.352;2023-08-31T13:01:00;23.00;99.90
28761;DHT22;15917;50.014;8.352;2023-08-31T13:03:27;23.00;99.90
28761;DHT22;15917;50.014;8.352;2023-08-31T13:05:53;22.90;99.90
28761;DHT22;15917;50.014;8.352;2023-08-31T13:08:19;23.00;99.90
28761;DHT22;15917;50.014;8.352;2023-08-31T13:10:51;23.20;99.90
28761;DHT22;15917;50.014;8.352;2023-08-31T13:13:17;23.30;99.90
28761;DHT22;15917;50.014;8.352;2023-08-31T13:15:43;23.40;99.90
28761;DHT22;15917;50.014;8.352;2023-08-31T13:18:08;23.20;99.90
28761;DHT22;15917;50.014;8.352;2023-08-31T13:20:34;22.80;99.90
28761;DHT22;15917;50.014;8.352;2023-08-31T13:23:01;22.60;99.90
28761;DHT22;15917;50.014;8.352;2023-08-31T13:25:26;22.60;99.90
28761;DHT22;15917;50.014;8.352;2023-08-31T13:27:52;22.80;99.90
28761;DHT22;15917;50.014;8.352;2023-08-31T13:30:18;22.80;99.90
28761;DHT22;15917;50.014;8.352;2023-08-31T13:32:43;23.10;99.90
28761;DHT22;15917;50.014;8.352;2023-08-31T13:35:09;23.50;99.90
28761;DHT22;15917;50.014;8.352;2023-08-31T13:37:35;23.40;99.90
28761;DHT22;15917;50.014;8.352;2023-08-31T13:40:01;23.00;99.90
28761;DHT22;15917;50.014;8.352;2023-08-31T13:42:31;22.90;99.90
28761;DHT22;15917;50.014;8.352;2023-08-31T13:44:58;23.00;99.90
28761;DHT22;15917;50.014;8.352;2023-08-31T13:47:24;22.70;99.90
28761;DHT22;15917;50.014;8.352;2023-08-31T13:49:50;22.90;99.90
28761;DHT22;15917;50.014;8.352;2023-08-31T13:52:15;23.20;99.10
28761;DHT22;15917;50.014;8.352;2023-08-31T13:54:42;23.20;98.60
28761;DHT22;15917;50.014;8.352;2023-08-31T13:57:07;23.10;99.90
28761;DHT22;15917;50.014;8.352;2023-08-31T13:59:33;23.20;99.80
28761;DHT22;15917;50.014;8.352;2023-08-31T14:01:58;23.10;99.80
28761;DHT22;15917;50.014;8.352;2023-08-31T14:04:24;22.90;99.90
28761;DHT22;15917;50.014;8.352;2023-08-31T14:06:50;22.90;99.90
28761;DHT22;15917;50.014;8.352;2023-08-31T14:09:15;23.20;99.90
28761;DHT22;15917;50.014;8.352;2023-08-31T14:11:42;23.30;99.50
28761;DHT22;15917;50.014;8.352;2023-08-31T14:14:08;23.00;99.90
28761;DHT22;15917;50.014;8.352;2023-08-31T14:16:37;22.70;99.90
28761;DHT22;15917;50.014;8.352;2023-08-31T14:19:06;22.60;99.90
28761;DHT22;15917;50.014;8.352;2023-08-31T14:21:32;22.80;99.90
28761;DHT22;15917;50.014;8.352;2023-08-31T14:23:57;22.90;99.90
28761;DHT22;15917;50.014;8.352;2023-08-31T14:26:23;22.90;99.90
28761;DHT22;15917;50.014;8.352;2023-08-31T14:28:50;22.80;99.90
28761;DHT22;15917;50.014;8.352;2023-08-31T14:31:16;22.80;99.90
28761;DHT22;15917;50.014;8.352;2023-08-31T14:33:42;22.60;99.90
28761;DHT22;15917;50.014;8.352;2023-08-31T14:36:08;22.40;99.90
28761;DHT22;15917;50.014;8.352;2023-08-31T14:38:33;22.40;99.90
28761;DHT22;15917;50.014;8.352;2023-08-31T14:40:59;22.50;99.90
28761;DHT22;15917;50.014;8.352;2023-08-31T14:43:25;22.60;99.90
28761;DHT22;15917;50.014;8.352;2023-08-31T14:45:50;22.50;99.90
28761;DHT22;15917;50.014;8.352;2023-08-31T14:48:16;22.40;99.90
28761;DHT22;15917;50.014;8.352;2023-08-31T14:50:43;22.00;99.90
28761;DHT22;15917;50.014;8.352;2023-08-31T14:53:09;21.70;99.90
28761;DHT22;15917;50.014;8.352;2023-08-31T14:55:34;21.50;99.90
28761;DHT22;15917;50.014;8.352;2023-08-31T14:58:00;21.20;99.90
28761;DHT22;15917;50.014;8.352;2023-08-31T15:00:25;21.10;99.90
28761;DHT22;15917;50.014;8.352;2023-08-31T15:02:51;21.10;99.90
28761;DHT22;15917;50.014;8.352;2023-08-31T15:05:17;21.30;99.90
28761;DHT22;15917;50.014;8.352;2023-08-31T15:07:42;21.60;99.90
28761;DHT22;15917;50.014;8.352;2023-08-31T15:10:08;21.60;99.90
28761;DHT22;15917;50.014;8.352;2023-08-31T15:12:34;21.70;99.90
28761;DHT22;15917;50.014;8.352;2023-08-31T15:15:01;21.90;99.90
28761;DHT22;15917;50.014;8.352;2023-08-31T15:17:27;21.90;99.90
28761;DHT22;15917;50.014;8.352;2023-08-31T15:19:53;22.20;99.90
28761;DHT22;15917;50.014;8.352;2023-08-31T15:22:19;22.20;99.90
28761;DHT22;15917;50.014;8.352;2023-08-31T15:24:46;22.10;99.90
28761;DHT22;15917;50.014;8.352;2023-08-31T15:27:11;21.90;99.90
28761;DHT22;15917;50.014;8.352;2023-08-31T15:29:37;21.50;99.90
28761;DHT22;15917;50.014;8.352;2023-08-31T15:32:03;21.30;99.90
28761;DHT22;15917;50.014;8.352;2023-08-31T15:34:28;21.10;99.90
28761;DHT22;15917;50.014;8.352;2023-08-31T15:36:54;20.90;99.90
28761;DHT22;15917;50.014;8.352;2023-08-31T15:39:19;20.90;99.90
28761;DHT22;15917;50.014;8.352;2023-08-31T15:41:46;20.80;99.90
28761;DHT22;15917;50.014;8.352;2023-08-31T15:44:11;20.80;99.90
28761;DHT22;15917;50.014;8.352;2023-08-31T15:46:37;20.80;99.90
28761;DHT22;15917;50.014;8.352;2023-08-31T15:49:03;20.70;99.90